createdAt,value
2023-05-21T00:00:59.469Z,101444.11
2023-05-21T00:03:46.107Z,101440.33
2023-05-21T00:06:21.292Z,101438.32
2023-05-21T00:08:53.662Z,101440.12
2023-05-21T00:11:26.162Z,101438.10
2023-05-21T00:13:58.208Z,101440.38
2023-05-21T00:16:30.342Z,101440.95
2023-05-21T00:19:02.560Z,101439.98
2023-05-21T00:21:34.372Z,101439.23
2023-05-21T00:24:07.014Z,101435.14
2023-05-21T00:26:39.919Z,101437.43
2023-05-21T00:29:11.703Z,101435.75
2023-05-21T00:31:43.475Z,101438.23
2023-05-21T00:34:16.549Z,101434.63
2023-05-21T00:36:49.035Z,101437.81
2023-05-21T00:39:21.222Z,101438.92
2023-05-21T00:41:53.193Z,101439.34
2023-05-21T00:44:25.586Z,101443.69
2023-05-21T00:46:57.606Z,101441.98
2023-05-21T00:49:29.842Z,101443.17
2023-05-21T00:52:01.850Z,101444.56
2023-05-21T00:54:34.497Z,101447.48
2023-05-21T00:57:08.936Z,101452.52
2023-05-21T00:59:40.964Z,101454.94
2023-05-21T01:02:14.380Z,101454.48
2023-05-21T01:04:47.137Z,101454.89
2023-05-21T01:07:18.991Z,101454.52
2023-05-21T01:09:51.497Z,101453.34
2023-05-21T01:12:24.086Z,101452.41
2023-05-21T01:14:56.441Z,101455.63
2023-05-21T01:17:29.031Z,101455.89
2023-05-21T01:20:01.344Z,101452.59
2023-05-21T01:22:34.525Z,101451.83
2023-05-21T01:25:06.865Z,101451.23
2023-05-21T01:27:38.799Z,101447.33
2023-05-21T01:30:13.147Z,101444.13
2023-05-21T01:32:52.180Z,101445.95
2023-05-21T01:35:27.689Z,101439.08
2023-05-21T01:38:04.484Z,101444.41
2023-05-21T01:40:40.660Z,101441.16
2023-05-21T01:43:13.548Z,101444.61
2023-05-21T01:45:47.012Z,101446.48
2023-05-21T01:48:18.521Z,101442.81
2023-05-21T01:50:51.301Z,101445.90
2023-05-21T01:53:23.305Z,101442.62
2023-05-21T01:55:55.676Z,101446.69
2023-05-21T01:58:28.614Z,101449.98
2023-05-21T02:01:00.903Z,101443.38
2023-05-21T02:03:34.157Z,101444.74
2023-05-21T02:06:06.770Z,101443.05
2023-05-21T02:08:38.794Z,101447.79
2023-05-21T02:11:10.791Z,101441.39
2023-05-21T02:13:43.162Z,101444.56
2023-05-21T02:16:16.161Z,101443.19
2023-05-21T02:18:51.472Z,101440.21
2023-05-21T02:21:23.561Z,101438.94
2023-05-21T02:23:55.852Z,101441.33
2023-05-21T02:26:29.197Z,101440.11
2023-05-21T02:29:01.377Z,101439.80
2023-05-21T02:31:33.237Z,101435.23
2023-05-21T02:34:05.197Z,101435.33
2023-05-21T02:36:37.334Z,101432.09
2023-05-21T02:39:09.165Z,101432.30
2023-05-21T02:41:41.321Z,101433.79
2023-05-21T02:44:13.108Z,101437.20
2023-05-21T02:46:45.013Z,101437.59
2023-05-21T02:49:16.882Z,101435.46
2023-05-21T02:51:48.927Z,101430.34
2023-05-21T02:54:20.998Z,101434.53
2023-05-21T02:56:52.980Z,101438.75
2023-05-21T02:59:25.254Z,101440.91
2023-05-21T03:01:57.389Z,101439.69
2023-05-21T03:04:29.551Z,101442.20
2023-05-21T03:07:02.442Z,101436.23
2023-05-21T03:09:34.203Z,101445.13
2023-05-21T03:12:07.957Z,101445.15
2023-05-21T03:14:40.457Z,101440.53
2023-05-21T03:17:14.403Z,101438.17
2023-05-21T03:19:46.803Z,101435.73
2023-05-21T03:22:20.391Z,101433.73
2023-05-21T03:24:53.556Z,101434.61
2023-05-21T03:27:26.246Z,101429.52
2023-05-21T03:29:59.463Z,101432.54
2023-05-21T03:32:34.155Z,101431.21
2023-05-21T03:35:06.744Z,101432.64
2023-05-21T03:37:38.735Z,101431.13
2023-05-21T03:40:12.702Z,101427.39
2023-05-21T03:42:43.149Z,101432.11
2023-05-21T03:45:15.340Z,101426.34
2023-05-21T03:47:49.190Z,101420.38
2023-05-21T03:50:21.226Z,101417.58
2023-05-21T03:52:53.585Z,101417.92
2023-05-21T03:55:25.496Z,101413.45
2023-05-21T03:57:57.543Z,101419.88
2023-05-21T04:00:29.561Z,101421.17
2023-05-21T04:03:01.756Z,101422.13
2023-05-21T04:05:33.966Z,101419.59
2023-05-21T04:08:07.066Z,101420.10
2023-05-21T04:10:38.931Z,101418.19
2023-05-21T04:13:10.971Z,101420.27
2023-05-21T04:15:43.772Z,101422.98
2023-05-21T04:18:16.677Z,101422.31
2023-05-21T04:20:50.116Z,101421.27
2023-05-21T04:23:23.786Z,101422.09
2023-05-21T04:25:55.914Z,101417.99
2023-05-21T04:28:29.078Z,101419.00
2023-05-21T04:31:01.554Z,101416.27
2023-05-21T04:33:33.678Z,101408.00
2023-05-21T04:36:05.948Z,101403.12
2023-05-21T04:38:38.699Z,101398.36
2023-05-21T04:41:10.991Z,101399.04
2023-05-21T04:43:44.628Z,101397.56
2023-05-21T04:46:15.210Z,101401.34
2023-05-21T04:48:47.248Z,101404.65
2023-05-21T04:51:19.324Z,101401.63
2023-05-21T04:53:51.289Z,101402.98
2023-05-21T04:56:23.670Z,101399.09
2023-05-21T04:58:56.218Z,101395.80
2023-05-21T05:01:29.639Z,101390.88
2023-05-21T05:04:01.693Z,101394.73
2023-05-21T05:06:33.707Z,101399.92
2023-05-21T05:09:05.766Z,101404.96
2023-05-21T05:11:37.685Z,101402.81
2023-05-21T05:14:10.070Z,101400.60
2023-05-21T05:16:43.006Z,101398.43
2023-05-21T05:19:15.089Z,101399.80
2023-05-21T05:21:47.972Z,101395.20
2023-05-21T05:24:20.039Z,101391.45
2023-05-21T05:26:52.074Z,101387.59
2023-05-21T05:29:24.129Z,101386.95
2023-05-21T05:31:56.119Z,101389.20
2023-05-21T05:34:27.981Z,101388.71
2023-05-21T05:36:59.936Z,101389.96
2023-05-21T05:39:32.072Z,101386.60
2023-05-21T05:42:04.561Z,101387.09
2023-05-21T05:44:36.560Z,101383.23
2023-05-21T05:47:11.024Z,101383.39
2023-05-21T05:49:43.186Z,101381.02
2023-05-21T05:52:15.089Z,101379.61
2023-05-21T05:54:47.228Z,101377.75
2023-05-21T05:57:19.007Z,101378.15
2023-05-21T05:59:51.027Z,101376.81
2023-05-21T06:02:23.177Z,101377.73
2023-05-21T06:04:55.397Z,101378.45
2023-05-21T06:07:27.420Z,101374.05
2023-05-21T06:09:59.748Z,101370.45
2023-05-21T06:12:31.561Z,101369.91
2023-05-21T06:15:03.656Z,101371.83
2023-05-21T06:17:35.787Z,101370.60
2023-05-21T06:20:10.185Z,101369.36
2023-05-21T06:22:42.136Z,101371.48
2023-05-21T06:25:14.707Z,101368.88
2023-05-21T06:27:46.657Z,101372.20
2023-05-21T06:30:18.867Z,101370.80
2023-05-21T06:32:50.839Z,101369.98
2023-05-21T06:35:23.080Z,101371.19
2023-05-21T06:37:54.980Z,101367.38
2023-05-21T06:40:26.877Z,101367.92
2023-05-21T06:43:00.001Z,101367.33
2023-05-21T06:45:32.279Z,101368.04
2023-05-21T06:48:04.310Z,101369.23
2023-05-21T06:50:36.231Z,101365.84
2023-05-21T06:53:08.136Z,101364.83
2023-05-21T06:55:40.479Z,101357.67
2023-05-21T06:58:12.887Z,101360.51
2023-05-21T07:00:45.144Z,101357.30
2023-05-21T07:03:17.463Z,101353.63
2023-05-21T07:05:50.034Z,101351.84
2023-05-21T07:08:22.225Z,101350.64
2023-05-21T07:10:54.389Z,101347.27
2023-05-21T07:13:26.846Z,101348.30
2023-05-21T07:15:59.353Z,101342.30
2023-05-21T07:18:31.157Z,101335.95
2023-05-21T07:21:03.157Z,101339.48
2023-05-21T07:23:35.014Z,101341.28
2023-05-21T07:26:07.032Z,101338.76
2023-05-21T07:28:38.876Z,101335.43
2023-05-21T07:31:12.353Z,101335.52
2023-05-21T07:33:44.246Z,101332.73
2023-05-21T07:36:16.241Z,101331.91
2023-05-21T07:38:48.311Z,101332.65
2023-05-21T07:41:20.399Z,101334.56
2023-05-21T07:43:52.533Z,101329.09
2023-05-21T07:46:24.670Z,101329.62
2023-05-21T07:48:56.808Z,101323.77
2023-05-21T07:51:29.711Z,101326.62
2023-05-21T07:54:01.626Z,101327.95
2023-05-21T07:56:33.988Z,101324.02
2023-05-21T07:59:05.843Z,101321.88
2023-05-21T08:01:38.751Z,101324.81
2023-05-21T08:04:10.830Z,101322.79
2023-05-21T08:06:43.222Z,101323.23
2023-05-21T08:09:15.247Z,101318.81
2023-05-21T08:11:47.762Z,101317.42
2023-05-21T08:14:19.835Z,101322.45
2023-05-21T08:16:52.027Z,101319.95
2023-05-21T08:19:24.355Z,101315.37
2023-05-21T08:21:56.272Z,101315.73
2023-05-21T08:24:28.568Z,101319.56
2023-05-21T08:27:00.923Z,101318.77
2023-05-21T08:29:33.584Z,101310.75
2023-05-21T08:32:06.362Z,101309.30
2023-05-21T08:34:38.559Z,101307.58
2023-05-21T08:37:10.656Z,101307.40
2023-05-21T08:39:42.775Z,101308.05
2023-05-21T08:42:35.212Z,101310.52
2023-05-21T08:45:09.825Z,101312.16
2023-05-21T08:47:44.868Z,101313.66
2023-05-21T08:50:19.363Z,101310.36
2023-05-21T08:52:53.487Z,101309.34
2023-05-21T08:55:26.951Z,101310.39
2023-05-21T08:57:59.057Z,101308.42
2023-05-21T09:00:31.101Z,101306.25
2023-05-21T09:03:07.900Z,101309.69
2023-05-21T09:05:41.810Z,101306.93
2023-05-21T09:08:17.825Z,101312.20
2023-05-21T09:10:52.219Z,101313.30
2023-05-21T09:13:24.358Z,101314.95
2023-05-21T09:15:56.305Z,101311.77
2023-05-21T09:18:29.360Z,101314.80
2023-05-21T09:21:01.618Z,101307.06
2023-05-21T09:23:36.510Z,101300.20
2023-05-21T09:26:13.350Z,101296.64
2023-05-21T09:28:45.347Z,101299.13
2023-05-21T09:31:17.416Z,101294.42
2023-05-21T09:33:53.044Z,101291.01
2023-05-21T09:36:25.727Z,101288.18
2023-05-21T09:39:00.144Z,101285.63
2023-05-21T09:41:36.982Z,101283.27
2023-05-21T09:44:10.724Z,101284.35
2023-05-21T09:46:43.213Z,101284.52
2023-05-21T09:49:26.716Z,101283.46
2023-05-21T09:52:02.152Z,101285.41
2023-05-21T09:54:36.520Z,101281.14
2023-05-21T09:57:09.491Z,101281.56
2023-05-21T09:59:41.572Z,101279.20
2023-05-21T10:02:20.922Z,101276.34
2023-05-21T10:04:54.799Z,101275.16
2023-05-21T10:07:28.355Z,101270.66
2023-05-21T10:10:00.432Z,101267.91
2023-05-21T10:12:34.151Z,101271.60
2023-05-21T10:15:05.280Z,101268.38
2023-05-21T10:17:37.506Z,101264.97
2023-05-21T10:20:11.964Z,101273.33
2023-05-21T10:22:44.261Z,101264.61
2023-05-21T10:25:16.735Z,101267.39
2023-05-21T10:27:49.825Z,101268.28
2023-05-21T10:30:23.126Z,101267.05
2023-05-21T10:32:55.864Z,101262.95
2023-05-21T10:35:28.942Z,101261.20
2023-05-21T10:38:02.602Z,101259.40
2023-05-21T10:40:36.942Z,101253.34
2023-05-21T10:43:32.175Z,101254.92
2023-05-21T10:46:25.546Z,101262.77
2023-05-21T10:49:09.496Z,101258.80
2023-05-21T10:51:50.215Z,101255.65
2023-05-21T10:54:37.161Z,101257.23
2023-05-21T10:57:15.207Z,101260.44
2023-05-21T10:59:48.505Z,101257.80
2023-05-21T11:02:22.405Z,101250.63
2023-05-21T11:05:00.961Z,101245.85
2023-05-21T11:07:56.560Z,101246.50
2023-05-21T11:10:39.493Z,101241.52
2023-05-21T11:13:14.343Z,101238.23
2023-05-21T11:16:10.996Z,101242.44
2023-05-21T11:19:04.683Z,101238.96
2023-05-21T11:21:38.409Z,101232.92
2023-05-21T11:24:11.244Z,101233.05
2023-05-21T11:27:05.897Z,101227.89
2023-05-21T11:29:42.677Z,101227.09
2023-05-21T11:32:20.821Z,101220.91
2023-05-21T11:34:52.918Z,101221.66
2023-05-21T11:37:30.419Z,101221.56
2023-05-21T11:40:19.839Z,101217.59
2023-05-21T11:42:56.153Z,101217.52
2023-05-21T11:45:32.326Z,101218.89
2023-05-21T11:48:04.675Z,101217.65
2023-05-21T11:50:37.694Z,101219.27
2023-05-21T11:53:09.130Z,101221.05
2023-05-21T11:55:47.450Z,101218.16
2023-05-21T11:58:21.729Z,101217.15
2023-05-21T12:00:55.146Z,101214.83
2023-05-21T12:03:27.596Z,101216.80
2023-05-21T12:06:08.592Z,101217.70
2023-05-21T12:08:40.584Z,101212.64
2023-05-21T12:11:12.640Z,101211.75
2023-05-21T12:13:44.578Z,101213.21
2023-05-21T12:16:16.790Z,101209.67
2023-05-21T12:18:48.713Z,101209.63
2023-05-21T12:21:20.958Z,101212.77
2023-05-21T12:23:52.766Z,101213.78
2023-05-21T12:26:25.784Z,101211.68
2023-05-21T12:28:58.233Z,101201.11
2023-05-21T12:31:33.252Z,101198.26
2023-05-21T12:34:05.273Z,101201.40
2023-05-21T12:36:38.655Z,101198.89
2023-05-21T12:39:12.663Z,101201.84
2023-05-21T12:41:45.117Z,101197.39
2023-05-21T12:44:16.943Z,101196.35
2023-05-21T12:46:49.099Z,101188.05
2023-05-21T12:49:36.075Z,101186.95
2023-05-21T12:52:11.518Z,101186.33
2023-05-21T12:54:45.455Z,101194.94
2023-05-21T12:57:19.220Z,101189.90
2023-05-21T12:59:52.963Z,101185.58
2023-05-21T13:02:26.698Z,101188.27
2023-05-21T13:05:00.725Z,101186.38
2023-05-21T13:07:33.476Z,101185.20
2023-05-21T13:10:06.405Z,101184.67
2023-05-21T13:12:38.588Z,101180.56
2023-05-21T13:15:11.508Z,101184.65
2023-05-21T13:17:43.587Z,101182.23
2023-05-21T13:20:16.837Z,101180.10
2023-05-21T13:22:50.346Z,101182.32
2023-05-21T13:25:25.158Z,101173.63
2023-05-21T13:27:58.431Z,101168.39
2023-05-21T13:30:30.899Z,101171.89
2023-05-21T13:33:03.022Z,101169.36
2023-05-21T13:35:35.792Z,101169.98
2023-05-21T13:38:08.015Z,101167.98
2023-05-21T13:40:40.489Z,101171.48
2023-05-21T13:43:13.116Z,101169.23
2023-05-21T13:45:45.339Z,101165.83
2023-05-21T13:48:17.357Z,101163.85
2023-05-21T13:50:49.301Z,101164.08
2023-05-21T13:53:21.384Z,101164.88
2023-05-21T13:55:53.292Z,101162.92
2023-05-21T13:58:27.918Z,101160.92
2023-05-21T14:01:00.170Z,101163.19
2023-05-21T14:03:33.888Z,101165.06
2023-05-21T14:06:06.132Z,101158.14
2023-05-21T14:08:38.405Z,101160.80
2023-05-21T14:11:11.834Z,101151.35
2023-05-21T14:13:44.065Z,101149.42
2023-05-21T14:16:15.981Z,101150.46
2023-05-21T14:18:47.838Z,101151.93
2023-05-21T14:21:19.852Z,101150.95
2023-05-21T14:23:51.976Z,101150.63
2023-05-21T14:26:23.853Z,101153.55
2023-05-21T14:28:55.972Z,101152.59
2023-05-21T14:31:27.958Z,101152.88
2023-05-21T14:33:59.991Z,101150.48
2023-05-21T14:36:32.677Z,101148.31
2023-05-21T14:39:05.300Z,101148.27
2023-05-21T14:41:39.325Z,101147.00
2023-05-21T14:44:11.349Z,101146.79
2023-05-21T14:46:43.239Z,101142.41
2023-05-21T14:49:15.372Z,101143.91
2023-05-21T14:51:47.771Z,101137.81
2023-05-21T14:54:20.186Z,101134.60
2023-05-21T14:56:52.025Z,101130.55
2023-05-21T14:59:24.564Z,101128.68
2023-05-21T15:01:56.550Z,101134.04
2023-05-21T15:04:28.680Z,101133.37
2023-05-21T15:07:00.512Z,101134.51
2023-05-21T15:09:34.542Z,101124.30
2023-05-21T15:12:06.789Z,101122.72
2023-05-21T15:14:39.182Z,101120.09
2023-05-21T15:17:10.948Z,101118.55
2023-05-21T15:19:42.902Z,101117.34
2023-05-21T15:22:14.764Z,101116.95
2023-05-21T15:24:47.096Z,101116.60
2023-05-21T15:27:19.581Z,101116.30
2023-05-21T15:29:51.806Z,101114.02
2023-05-21T15:32:23.591Z,101116.02
2023-05-21T15:34:55.806Z,101119.76
2023-05-21T15:37:27.788Z,101115.67
2023-05-21T15:39:59.864Z,101116.21
2023-05-21T15:42:32.020Z,101114.23
2023-05-21T15:45:04.165Z,101109.95
2023-05-21T15:47:36.148Z,101110.45
2023-05-21T15:50:12.422Z,101108.66
2023-05-21T15:52:45.030Z,101109.25
2023-05-21T15:55:20.668Z,101106.95
2023-05-21T15:57:52.629Z,101109.64
2023-05-21T16:00:25.170Z,101110.71
2023-05-21T16:02:57.017Z,101108.38
2023-05-21T16:05:29.920Z,101108.94
2023-05-21T16:08:02.053Z,101107.64
2023-05-21T16:10:34.407Z,101110.73
2023-05-21T16:13:06.274Z,101109.36
2023-05-21T16:15:38.404Z,101107.43
2023-05-21T16:18:11.804Z,101108.30
2023-05-21T16:20:44.191Z,101109.95
2023-05-21T16:23:16.173Z,101107.61
2023-05-21T16:25:48.331Z,101106.33
2023-05-21T16:28:21.003Z,101104.98
2023-05-21T16:30:54.624Z,101101.27
2023-05-21T16:33:26.778Z,101102.18
2023-05-21T16:35:59.310Z,101108.01
2023-05-21T16:38:32.315Z,101105.77
2023-05-21T16:41:05.314Z,101105.03
2023-05-21T16:43:37.522Z,101106.98
2023-05-21T16:46:09.464Z,101107.30
2023-05-21T16:48:42.791Z,101103.17
2023-05-21T16:51:14.626Z,101106.13
2023-05-21T16:53:46.422Z,101107.42
2023-05-21T16:56:18.663Z,101110.12
2023-05-21T16:58:50.526Z,101110.25
2023-05-21T17:01:22.442Z,101109.29
2023-05-21T17:03:56.135Z,101105.23
2023-05-21T17:06:28.387Z,101108.83
2023-05-21T17:09:00.277Z,101109.34
2023-05-21T17:11:35.221Z,101109.23
2023-05-21T17:14:07.082Z,101107.41
2023-05-21T17:16:43.162Z,101106.74
2023-05-21T17:19:14.966Z,101106.20
2023-05-21T17:21:47.009Z,101107.41
2023-05-21T17:24:18.851Z,101106.68
2023-05-21T17:26:50.862Z,101103.36
2023-05-21T17:29:22.721Z,101103.16
2023-05-21T17:31:54.727Z,101102.80
2023-05-21T17:34:29.605Z,101106.73
2023-05-21T17:37:02.001Z,101106.35
2023-05-21T17:39:33.850Z,101107.45
2023-05-21T17:42:06.963Z,101105.97
2023-05-21T17:44:38.982Z,101104.45
2023-05-21T17:47:12.020Z,101103.21
2023-05-21T17:49:43.902Z,101099.70
2023-05-21T17:52:15.814Z,101100.60
2023-05-21T17:54:47.694Z,101101.42
2023-05-21T17:57:20.774Z,101101.23
2023-05-21T17:59:52.712Z,101098.53
2023-05-21T18:02:25.625Z,101095.71
2023-05-21T18:04:57.493Z,101092.60
2023-05-21T18:07:29.874Z,101095.83
2023-05-21T18:10:01.594Z,101095.10
2023-05-21T18:12:33.907Z,101092.00
2023-05-21T18:15:07.806Z,101092.98
2023-05-21T18:17:40.122Z,101094.45
2023-05-21T18:20:13.956Z,101093.98
2023-05-21T18:22:46.471Z,101098.70
2023-05-21T18:25:18.610Z,101098.25
2023-05-21T18:27:50.955Z,101098.64
2023-05-21T18:30:22.898Z,101094.20
2023-05-21T18:32:55.274Z,101099.27
2023-05-21T18:35:27.324Z,101103.07
2023-05-21T18:37:59.604Z,101108.09
2023-05-21T18:40:33.354Z,101109.81
2023-05-21T18:43:06.589Z,101108.29
2023-05-21T18:45:38.456Z,101107.85
2023-05-21T18:48:12.109Z,101107.23
2023-05-21T18:50:42.426Z,101107.05
2023-05-21T18:53:14.314Z,101108.95
2023-05-21T18:55:46.104Z,101111.66
2023-05-21T18:58:18.014Z,101112.50
2023-05-21T19:00:49.821Z,101116.65
2023-05-21T19:03:21.903Z,101118.56
2023-05-21T19:05:53.692Z,101121.88
2023-05-21T19:08:25.714Z,101115.20
2023-05-21T19:10:57.962Z,101118.95
2023-05-21T19:13:30.071Z,101117.28
2023-05-21T19:16:02.538Z,101116.45
2023-05-21T19:18:35.122Z,101117.05
2023-05-21T19:21:07.004Z,101112.23
2023-05-21T19:23:51.929Z,101114.64
2023-05-21T19:26:24.710Z,101116.89
2023-05-21T19:28:56.822Z,101118.63
2023-05-21T19:31:28.809Z,101114.08
2023-05-21T19:34:00.912Z,101115.30
2023-05-21T19:36:44.462Z,101117.30
2023-05-21T19:39:24.078Z,101116.91
2023-05-21T19:41:56.192Z,101121.13
2023-05-21T19:44:28.276Z,101124.31
2023-05-21T19:47:00.139Z,101127.22
2023-05-21T19:49:32.217Z,101126.00
2023-05-21T19:52:04.122Z,101126.08
2023-05-21T19:54:36.971Z,101123.64
2023-05-21T19:57:10.890Z,101121.74
2023-05-21T19:59:44.269Z,101122.34
2023-05-21T20:02:17.144Z,101120.89
2023-05-21T20:04:50.326Z,101116.28
2023-05-21T20:07:22.116Z,101117.83
2023-05-21T20:09:54.088Z,101115.98
2023-05-21T20:12:25.943Z,101112.27
2023-05-21T20:14:59.553Z,101112.97
2023-05-21T20:17:34.348Z,101110.39
2023-05-21T20:20:11.274Z,101112.70
2023-05-21T20:22:43.264Z,101115.16
2023-05-21T20:25:15.201Z,101114.38
2023-05-21T20:27:47.563Z,101116.17
2023-05-21T20:30:19.520Z,101118.48
2023-05-21T20:32:51.453Z,101120.36
2023-05-21T20:35:24.764Z,101122.11
2023-05-21T20:37:56.690Z,101123.89
2023-05-21T20:40:28.665Z,101122.52
2023-05-21T20:43:01.765Z,101120.02
2023-05-21T20:45:33.722Z,101122.61
2023-05-21T20:48:06.181Z,101122.46
2023-05-21T20:50:38.538Z,101124.63
2023-05-21T20:53:10.693Z,101127.29
2023-05-21T20:55:44.610Z,101128.44
2023-05-21T20:58:17.016Z,101124.75
2023-05-21T21:00:50.614Z,101125.50
2023-05-21T21:03:21.701Z,101129.01
2023-05-21T21:05:56.900Z,101124.98
2023-05-21T21:08:28.813Z,101123.16
2023-05-21T21:11:00.657Z,101119.97
2023-05-21T21:13:32.433Z,101118.35
2023-05-21T21:16:04.548Z,101119.20
2023-05-21T21:18:36.478Z,101114.35
2023-05-21T21:21:08.502Z,101110.69
2023-05-21T21:23:40.307Z,101115.17
2023-05-21T21:26:12.170Z,101115.88
2023-05-21T21:28:45.425Z,101111.25
2023-05-21T21:31:18.737Z,101109.75
2023-05-21T21:33:50.711Z,101111.38
2023-05-21T21:36:22.694Z,101108.25
2023-05-21T21:38:54.641Z,101108.59
2023-05-21T21:41:26.635Z,101112.19
2023-05-21T21:44:01.145Z,101108.30
2023-05-21T21:46:33.645Z,101109.60
2023-05-21T21:49:05.867Z,101105.84
2023-05-21T21:51:38.283Z,101106.89
2023-05-21T21:54:10.115Z,101104.84
2023-05-21T21:56:42.189Z,101107.35
2023-05-21T21:59:14.239Z,101102.66
2023-05-21T22:01:46.623Z,101103.52
2023-05-21T22:04:18.968Z,101098.95
2023-05-21T22:06:52.006Z,101102.00
2023-05-21T22:09:23.947Z,101110.55
2023-05-21T22:11:56.671Z,101108.11
2023-05-21T22:14:28.467Z,101107.52
2023-05-21T22:17:00.856Z,101107.06
2023-05-21T22:19:33.655Z,101108.27
2023-05-21T22:22:06.006Z,101106.08
2023-05-21T22:24:37.812Z,101106.98
2023-05-21T22:27:10.064Z,101106.46
2023-05-21T22:29:42.075Z,101106.33
2023-05-21T22:32:14.213Z,101103.98
2023-05-21T22:34:46.073Z,101109.77
2023-05-21T22:37:19.341Z,101109.33
2023-05-21T22:39:51.279Z,101108.23
2023-05-21T22:42:23.106Z,101110.97
2023-05-21T22:44:54.939Z,101107.63
2023-05-21T22:47:26.878Z,101110.31
2023-05-21T22:50:01.566Z,101110.72
2023-05-21T22:52:34.468Z,101115.04
2023-05-21T22:55:08.184Z,101111.88
2023-05-21T22:57:40.174Z,101113.53
2023-05-21T23:00:13.614Z,101113.55
2023-05-21T23:02:46.140Z,101113.97
2023-05-21T23:05:18.194Z,101114.87
2023-05-21T23:07:50.401Z,101112.99
2023-05-21T23:10:22.244Z,101116.83
2023-05-21T23:12:54.495Z,101113.84
2023-05-21T23:15:26.891Z,101108.34
2023-05-21T23:17:59.713Z,101111.88
2023-05-21T23:20:32.459Z,101107.73
2023-05-21T23:23:04.370Z,101109.13
2023-05-21T23:25:36.960Z,101111.17
2023-05-21T23:28:08.943Z,101108.91
2023-05-21T23:30:40.941Z,101105.44
2023-05-21T23:33:14.066Z,101109.38
2023-05-21T23:35:45.968Z,101107.55
2023-05-21T23:38:17.926Z,101105.13
2023-05-21T23:40:49.763Z,101106.85
2023-05-21T23:43:22.194Z,101104.98
2023-05-21T23:45:54.034Z,101105.77
2023-05-21T23:48:26.093Z,101104.13
2023-05-21T23:50:58.040Z,101103.89
2023-05-21T23:53:30.098Z,101104.61
2023-05-21T23:56:01.988Z,101102.46
2023-05-21T23:58:33.854Z,101100.46
